Arta, Greece

1:34 PM EEST on September 02, 2015 (GMT +0300)
IWESTGRE4 | | Change Station
CLOSE
Current Station
Personal Weather Station
Location: NEA KAMARINA (SV1JMO), WEST GREECE
Elevation: 52 ft
Nearby Weather Stations

Elev 52 ft 38.93 °N, 20.85 °E | Updated 4 minutes ago

Partly Cloudy
Partly Cloudy
86.4 °F
Feels Like 92 °F
N
6.5
Wind Variable Wind from WNW
Gusts 13.0 mph

Today
High -- | Low -- °F
--% Chance of Precip.
Yesterday
High -- | Low -- °F
Precip. -- in
7:05 AM 8:05 PM
Waning Gibbous, 81% visible
Pressure 29.89 in
Visibility 6.2 miles
Clouds Few 2000 ft
Heat Index 92 °F
Dew Point 71 °F
Humidity 60%
Rainfall 0.00 in
Snow Depth Not available.
UV 8 out of 12
Pollen Not available.
Air Quality Not available.
Flu Activity Not available.
METAR LGPZ 021020Z 27011KT 9999 FEW020 30/22 Q1012
Pressure 29.89 in
Visibility 6.2 miles
Clouds Few 2000 ft
Heat Index 92 °F
Dew Point 71 °F
Humidity 60%
Rainfall 0.00 in
Snow Depth Not available.
UV 8 out of 12
Pollen Not available.
Air Quality Not available.
Flu Activity Not available.
METAR LGPZ 021020Z 27011KT 9999 FEW020 30/22 Q1012

10-Day Weather Forecast

×

Almanac

Astronomy

Sep. 02, 2015 Rise Set
Actual Time
Civil Twilight
Nautical Twilight
Astronomical Twilight
Moon
Length of Visible Light
Length of Day
Tomorrow will be .
, % of the Moon is Illuminated

Today's Extremes

Country Highs Country Lows

Community

WunderPhotos

Upload Photos

1,851,734 photos uploaded!

WunderBlogs® & News

Nearby

Air Quality

  Air Quality AQ Index Pollutant
Not available.

Snow Depth

Station Depth Elevation

Earthquake Activity

City Distance Mag. Time & Date
Minimum magnitude displayed is 2.5.

Coastal Water Temperatures

Place Temperature

Stations

Nearby Weather Stations

Station Location Temp. Windchill Dew Point Humidity Wind Precip. Elev Updated Type